首页
METAR-TAF:

METAR-TAF

机场 :

格林贝, 威斯康辛州, 美国

纬度: 44-28-46N, 经度: 088-08-12W, 海拔: 211米

当前天气观测

该预报发布于19分钟前的07:53 UTC
风速14节,风向西转西北
温度 -7°C
湿度 67%
气压 1010 hPa
能見度: 14.5公里
散云层高于2000英尺
阴天层高于2500英尺
小雪

METAR: KGRB 100753Z AUTO 30014KT 9SM -SN SCT020 OVC025 M07/M12 A2983 RMK AO2 SNB32 SLP111 P0000 T10721117

时间: 02:12 (08:12 UTC)

预报

该预报发布于2小时和52分钟前的05:20 UTC
预报有效从10日的 06点(UTC)到 11日的 06点(UTC)
风速12节,风向西北,有时为22节阵风
能見度: 10公里
多云层高于2500英尺
小雪
从 10日的 1100点(UTC)
风速12节,风向西转西北,有时为21节阵风
能見度: 10公里
散云层高于3500英尺
从 11日的 0000点(UTC)
风速7节,风向西
能見度: 10公里
天空无云

TAF: KGRB 100520Z 1006/1106 31012G22KT P6SM -SN BKN025 FM101100 29012G21KT P6SM SCT035 FM110000 27007KT P6SM SKC

超过4000个机场的气象观测和天气预报(METAR&TAF报告)。

可查询的气象台以黄色和红色小点在地图上表示。

将鼠标移到小点上方,可查看气象台名称。

然后点击查看天气观测和预报。

如需切换地图:点击带黑十字的绿色按钮放大地图;点击带横线的绿色按钮缩小地图;或者点击绿色箭头查看邻近地区的地图。


METAR-TAF: